sensor_id;sensor_type;location;lat;lon;timestamp;P1;durP1;ratioP1;P2;durP2;ratioP2
76786;SDS011;65739;51.482;5.702;2023-04-06T00:01:30;18.88;;;10.13;;
76786;SDS011;65739;51.482;5.702;2023-04-06T00:03:55;17.65;;;9.73;;
76786;SDS011;65739;51.482;5.702;2023-04-06T00:06:21;16.75;;;9.80;;
76786;SDS011;65739;51.482;5.702;2023-04-06T00:08:46;17.25;;;9.63;;
76786;SDS011;65739;51.482;5.702;2023-04-06T00:11:12;17.67;;;9.88;;
76786;SDS011;65739;51.482;5.702;2023-04-06T00:13:38;19.02;;;9.98;;
76786;SDS011;65739;51.482;5.702;2023-04-06T00:16:03;18.35;;;9.68;;
76786;SDS011;65739;51.482;5.702;2023-04-06T00:18:30;20.35;;;10.82;;
76786;SDS011;65739;51.482;5.702;2023-04-06T00:20:56;22.38;;;13.07;;
76786;SDS011;65739;51.482;5.702;2023-04-06T00:23:22;35.05;;;14.88;;
76786;SDS011;65739;51.482;5.702;2023-04-06T00:25:47;29.65;;;14.02;;
76786;SDS011;65739;51.482;5.702;2023-04-06T00:28:13;25.65;;;13.82;;
76786;SDS011;65739;51.482;5.702;2023-04-06T00:30:39;25.55;;;12.98;;
76786;SDS011;65739;51.482;5.702;2023-04-06T00:33:05;21.52;;;11.23;;
76786;SDS011;65739;51.482;5.702;2023-04-06T00:35:31;21.10;;;10.85;;
76786;SDS011;65739;51.482;5.702;2023-04-06T00:37:56;18.20;;;9.75;;
76786;SDS011;65739;51.482;5.702;2023-04-06T00:40:22;19.23;;;9.85;;
76786;SDS011;65739;51.482;5.702;2023-04-06T00:42:48;16.95;;;9.38;;
76786;SDS011;65739;51.482;5.702;2023-04-06T00:45:13;14.88;;;9.07;;
76786;SDS011;65739;51.482;5.702;2023-04-06T00:47:39;16.10;;;9.00;;
76786;SDS011;65739;51.482;5.702;2023-04-06T00:50:05;22.48;;;9.65;;
76786;SDS011;65739;51.482;5.702;2023-04-06T00:52:31;16.60;;;9.43;;
76786;SDS011;65739;51.482;5.702;2023-04-06T00:54:56;18.15;;;10.07;;
76786;SDS011;65739;51.482;5.702;2023-04-06T00:57:22;15.75;;;9.32;;
76786;SDS011;65739;51.482;5.702;2023-04-06T00:59:48;17.23;;;9.25;;
76786;SDS011;65739;51.482;5.702;2023-04-06T01:02:14;18.88;;;9.45;;
76786;SDS011;65739;51.482;5.702;2023-04-06T01:04:42;16.23;;;8.82;;
76786;SDS011;65739;51.482;5.702;2023-04-06T01:07:08;18.05;;;9.45;;
76786;SDS011;65739;51.482;5.702;2023-04-06T01:09:36;17.80;;;9.07;;
76786;SDS011;65739;51.482;5.702;2023-04-06T01:12:02;19.63;;;9.40;;
76786;SDS011;65739;51.482;5.702;2023-04-06T01:14:28;17.10;;;9.07;;
76786;SDS011;65739;51.482;5.702;2023-04-06T01:16:54;17.38;;;9.40;;
76786;SDS011;65739;51.482;5.702;2023-04-06T01:19:22;15.65;;;8.75;;
76786;SDS011;65739;51.482;5.702;2023-04-06T01:21:48;17.35;;;9.07;;
76786;SDS011;65739;51.482;5.702;2023-04-06T01:24:15;14.68;;;9.07;;
76786;SDS011;65739;51.482;5.702;2023-04-06T01:26:40;15.05;;;8.90;;
76786;SDS011;65739;51.482;5.702;2023-04-06T01:29:06;18.80;;;9.55;;
76786;SDS011;65739;51.482;5.702;2023-04-06T01:31:32;18.55;;;9.98;;
76786;SDS011;65739;51.482;5.702;2023-04-06T01:33:58;19.33;;;9.50;;
76786;SDS011;65739;51.482;5.702;2023-04-06T01:36:23;19.63;;;9.25;;
76786;SDS011;65739;51.482;5.702;2023-04-06T01:38:50;16.50;;;9.60;;
76786;SDS011;65739;51.482;5.702;2023-04-06T01:41:15;21.38;;;9.88;;
76786;SDS011;65739;51.482;5.702;2023-04-06T01:43:41;19.27;;;9.15;;
76786;SDS011;65739;51.482;5.702;2023-04-06T01:46:07;16.90;;;9.68;;
76786;SDS011;65739;51.482;5.702;2023-04-06T01:48:32;17.90;;;9.20;;
76786;SDS011;65739;51.482;5.702;2023-04-06T01:50:58;15.73;;;9.05;;
76786;SDS011;65739;51.482;5.702;2023-04-06T01:53:23;16.15;;;8.77;;
76786;SDS011;65739;51.482;5.702;2023-04-06T01:55:49;21.60;;;10.02;;
76786;SDS011;65739;51.482;5.702;2023-04-06T01:58:14;24.13;;;9.82;;
76786;SDS011;65739;51.482;5.702;2023-04-06T02:00:40;17.05;;;9.70;;
76786;SDS011;65739;51.482;5.702;2023-04-06T02:03:05;15.60;;;9.18;;
76786;SDS011;65739;51.482;5.702;2023-04-06T02:05:31;18.30;;;9.73;;
76786;SDS011;65739;51.482;5.702;2023-04-06T02:08:03;18.50;;;9.98;;
76786;SDS011;65739;51.482;5.702;2023-04-06T02:10:30;21.90;;;10.05;;
76786;SDS011;65739;51.482;5.702;2023-04-06T02:12:56;15.95;;;8.98;;
76786;SDS011;65739;51.482;5.702;2023-04-06T02:15:22;20.98;;;10.70;;
76786;SDS011;65739;51.482;5.702;2023-04-06T02:17:47;16.83;;;9.73;;
76786;SDS011;65739;51.482;5.702;2023-04-06T02:20:13;21.02;;;10.52;;
76786;SDS011;65739;51.482;5.702;2023-04-06T02:22:38;20.70;;;10.35;;
76786;SDS011;65739;51.482;5.702;2023-04-06T02:25:04;17.05;;;9.48;;
76786;SDS011;65739;51.482;5.702;2023-04-06T02:27:30;19.65;;;10.30;;
76786;SDS011;65739;51.482;5.702;2023-04-06T02:29:56;17.95;;;10.02;;
76786;SDS011;65739;51.482;5.702;2023-04-06T02:32:21;21.65;;;11.85;;
76786;SDS011;65739;51.482;5.702;2023-04-06T02:34:47;20.35;;;10.15;;
76786;SDS011;65739;51.482;5.702;2023-04-06T02:37:12;20.65;;;10.48;;
76786;SDS011;65739;51.482;5.702;2023-04-06T02:39:38;20.40;;;11.13;;
76786;SDS011;65739;51.482;5.702;2023-04-06T02:42:03;18.25;;;10.70;;
76786;SDS011;65739;51.482;5.702;2023-04-06T02:44:29;15.93;;;9.50;;
76786;SDS011;65739;51.482;5.702;2023-04-06T02:46:55;21.67;;;10.80;;
76786;SDS011;65739;51.482;5.702;2023-04-06T02:49:20;20.17;;;11.10;;
76786;SDS011;65739;51.482;5.702;2023-04-06T02:51:46;20.10;;;10.40;;
76786;SDS011;65739;51.482;5.702;2023-04-06T02:54:12;24.13;;;11.00;;
76786;SDS011;65739;51.482;5.702;2023-04-06T02:56:38;25.55;;;12.45;;
76786;SDS011;65739;51.482;5.702;2023-04-06T02:59:03;21.00;;;11.35;;
76786;SDS011;65739;51.482;5.702;2023-04-06T03:01:29;25.70;;;12.45;;
76786;SDS011;65739;51.482;5.702;2023-04-06T03:03:55;20.85;;;11.93;;
76786;SDS011;65739;51.482;5.702;2023-04-06T03:06:21;25.42;;;12.13;;
76786;SDS011;65739;51.482;5.702;2023-04-06T03:08:46;20.88;;;11.95;;
76786;SDS011;65739;51.482;5.702;2023-04-06T03:11:12;22.73;;;12.00;;
76786;SDS011;65739;51.482;5.702;2023-04-06T03:13:37;20.92;;;11.77;;
76786;SDS011;65739;51.482;5.702;2023-04-06T03:16:04;23.30;;;12.50;;
76786;SDS011;65739;51.482;5.702;2023-04-06T03:18:30;29.63;;;12.88;;
76786;SDS011;65739;51.482;5.702;2023-04-06T03:20:57;19.95;;;11.70;;
76786;SDS011;65739;51.482;5.702;2023-04-06T03:23:23;22.60;;;12.25;;
76786;SDS011;65739;51.482;5.702;2023-04-06T03:25:48;21.23;;;11.50;;
76786;SDS011;65739;51.482;5.702;2023-04-06T03:28:14;23.02;;;12.25;;
76786;SDS011;65739;51.482;5.702;2023-04-06T03:30:41;24.08;;;12.55;;
76786;SDS011;65739;51.482;5.702;2023-04-06T03:33:06;22.67;;;12.55;;
76786;SDS011;65739;51.482;5.702;2023-04-06T03:35:32;25.45;;;13.38;;
76786;SDS011;65739;51.482;5.702;2023-04-06T03:37:58;22.77;;;12.55;;
76786;SDS011;65739;51.482;5.702;2023-04-06T03:40:23;24.40;;;13.48;;
76786;SDS011;65739;51.482;5.702;2023-04-06T03:42:49;22.90;;;13.25;;
76786;SDS011;65739;51.482;5.702;2023-04-06T03:45:15;22.95;;;12.75;;
76786;SDS011;65739;51.482;5.702;2023-04-06T03:47:40;28.30;;;13.32;;
76786;SDS011;65739;51.482;5.702;2023-04-06T03:50:06;23.55;;;12.23;;
76786;SDS011;65739;51.482;5.702;2023-04-06T03:52:32;23.38;;;12.77;;
76786;SDS011;65739;51.482;5.702;2023-04-06T03:54:57;24.55;;;12.93;;
76786;SDS011;65739;51.482;5.702;2023-04-06T03:57:23;20.40;;;12.32;;
76786;SDS011;65739;51.482;5.702;2023-04-06T03:59:48;24.98;;;13.40;;
76786;SDS011;65739;51.482;5.702;2023-04-06T04:02:14;22.17;;;12.23;;
76786;SDS011;65739;51.482;5.702;2023-04-06T04:04:40;24.77;;;13.23;;
76786;SDS011;65739;51.482;5.702;2023-04-06T04:07:05;21.92;;;12.90;;
76786;SDS011;65739;51.482;5.702;2023-04-06T04:09:31;21.77;;;12.88;;
76786;SDS011;65739;51.482;5.702;2023-04-06T04:11:56;26.77;;;12.65;;
76786;SDS011;65739;51.482;5.702;2023-04-06T04:14:22;23.75;;;13.48;;
76786;SDS011;65739;51.482;5.702;2023-04-06T04:16:47;21.42;;;12.82;;
76786;SDS011;65739;51.482;5.702;2023-04-06T04:19:13;25.10;;;13.10;;
76786;SDS011;65739;51.482;5.702;2023-04-06T04:21:42;26.55;;;13.20;;
76786;SDS011;65739;51.482;5.702;2023-04-06T04:24:09;31.13;;;14.07;;
76786;SDS011;65739;51.482;5.702;2023-04-06T04:26:35;22.60;;;12.90;;
76786;SDS011;65739;51.482;5.702;2023-04-06T04:29:01;24.67;;;13.57;;
76786;SDS011;65739;51.482;5.702;2023-04-06T04:31:26;25.52;;;12.40;;
76786;SDS011;65739;51.482;5.702;2023-04-06T04:33:52;24.15;;;14.30;;
76786;SDS011;65739;51.482;5.702;2023-04-06T04:36:17;25.65;;;12.70;;
76786;SDS011;65739;51.482;5.702;2023-04-06T04:38:43;21.92;;;12.10;;
76786;SDS011;65739;51.482;5.702;2023-04-06T04:41:08;24.10;;;12.68;;
76786;SDS011;65739;51.482;5.702;2023-04-06T04:43:34;27.55;;;13.73;;
76786;SDS011;65739;51.482;5.702;2023-04-06T04:45:59;25.33;;;12.80;;
76786;SDS011;65739;51.482;5.702;2023-04-06T04:48:25;23.52;;;13.07;;
76786;SDS011;65739;51.482;5.702;2023-04-06T04:50:51;22.75;;;13.35;;
76786;SDS011;65739;51.482;5.702;2023-04-06T04:53:16;26.48;;;13.77;;
76786;SDS011;65739;51.482;5.702;2023-04-06T04:55:42;24.95;;;13.15;;
76786;SDS011;65739;51.482;5.702;2023-04-06T04:58:07;24.98;;;13.50;;
76786;SDS011;65739;51.482;5.702;2023-04-06T05:00:35;29.27;;;14.27;;
76786;SDS011;65739;51.482;5.702;2023-04-06T05:03:01;25.05;;;13.32;;
76786;SDS011;65739;51.482;5.702;2023-04-06T05:05:28;24.80;;;13.73;;
76786;SDS011;65739;51.482;5.702;2023-04-06T05:07:54;23.77;;;13.25;;
76786;SDS011;65739;51.482;5.702;2023-04-06T05:10:20;23.88;;;13.77;;
76786;SDS011;65739;51.482;5.702;2023-04-06T05:12:45;25.35;;;14.68;;
76786;SDS011;65739;51.482;5.702;2023-04-06T05:15:11;26.58;;;14.55;;
76786;SDS011;65739;51.482;5.702;2023-04-06T05:17:36;25.20;;;13.88;;
76786;SDS011;65739;51.482;5.702;2023-04-06T05:20:02;23.65;;;13.40;;
76786;SDS011;65739;51.482;5.702;2023-04-06T05:22:28;24.13;;;14.18;;
76786;SDS011;65739;51.482;5.702;2023-04-06T05:24:53;31.70;;;14.93;;
76786;SDS011;65739;51.482;5.702;2023-04-06T05:27:19;26.52;;;14.05;;
76786;SDS011;65739;51.482;5.702;2023-04-06T05:29:44;25.25;;;14.18;;
76786;SDS011;65739;51.482;5.702;2023-04-06T05:32:10;31.80;;;14.45;;
76786;SDS011;65739;51.482;5.702;2023-04-06T05:34:36;28.13;;;14.60;;
76786;SDS011;65739;51.482;5.702;2023-04-06T05:37:02;30.05;;;15.30;;
76786;SDS011;65739;51.482;5.702;2023-04-06T05:39:27;25.95;;;14.18;;
76786;SDS011;65739;51.482;5.702;2023-04-06T05:41:53;24.23;;;14.07;;
76786;SDS011;65739;51.482;5.702;2023-04-06T05:44:18;26.75;;;13.77;;
76786;SDS011;65739;51.482;5.702;2023-04-06T05:46:44;27.58;;;15.00;;
76786;SDS011;65739;51.482;5.702;2023-04-06T05:52:39;26.08;;;13.43;;
76786;SDS011;65739;51.482;5.702;2023-04-06T05:55:08;27.80;;;15.60;;
76786;SDS011;65739;51.482;5.702;2023-04-06T05:57:36;23.92;;;14.80;;
76786;SDS011;65739;51.482;5.702;2023-04-06T06:00:07;27.48;;;15.02;;
76786;SDS011;65739;51.482;5.702;2023-04-06T06:02:59;23.52;;;14.32;;
76786;SDS011;65739;51.482;5.702;2023-04-06T06:05:25;24.95;;;14.18;;
76786;SDS011;65739;51.482;5.702;2023-04-06T06:07:50;25.77;;;13.57;;
76786;SDS011;65739;51.482;5.702;2023-04-06T06:10:16;25.08;;;13.93;;
76786;SDS011;65739;51.482;5.702;2023-04-06T06:12:42;21.48;;;13.73;;
76786;SDS011;65739;51.482;5.702;2023-04-06T06:15:08;22.80;;;13.23;;
76786;SDS011;65739;51.482;5.702;2023-04-06T06:17:33;25.70;;;14.32;;
76786;SDS011;65739;51.482;5.702;2023-04-06T06:19:59;21.83;;;13.57;;
76786;SDS011;65739;51.482;5.702;2023-04-06T06:22:25;24.58;;;13.85;;
76786;SDS011;65739;51.482;5.702;2023-04-06T06:24:50;24.40;;;14.23;;
76786;SDS011;65739;51.482;5.702;2023-04-06T06:27:16;23.25;;;13.13;;
76786;SDS011;65739;51.482;5.702;2023-04-06T06:29:41;23.25;;;12.98;;
76786;SDS011;65739;51.482;5.702;2023-04-06T06:41:22;20.90;;;12.05;;
76786;SDS011;65739;51.482;5.702;2023-04-06T06:47:10;20.88;;;11.75;;
76786;SDS011;65739;51.482;5.702;2023-04-06T07:24:48;25.23;;;12.10;;
76786;SDS011;65739;51.482;5.702;2023-04-06T07:37:48;19.50;;;11.50;;
76786;SDS011;65739;51.482;5.702;2023-04-06T07:40:14;23.92;;;12.48;;
76786;SDS011;65739;51.482;5.702;2023-04-06T07:42:40;19.75;;;10.57;;
76786;SDS011;65739;51.482;5.702;2023-04-06T07:45:05;20.73;;;11.30;;
76786;SDS011;65739;51.482;5.702;2023-04-06T07:47:32;19.10;;;11.15;;
76786;SDS011;65739;51.482;5.702;2023-04-06T07:49:58;19.83;;;12.05;;
76786;SDS011;65739;51.482;5.702;2023-04-06T07:52:23;20.73;;;11.98;;
76786;SDS011;65739;51.482;5.702;2023-04-06T07:54:49;21.27;;;12.18;;
76786;SDS011;65739;51.482;5.702;2023-04-06T07:57:15;21.05;;;12.30;;
76786;SDS011;65739;51.482;5.702;2023-04-06T07:59:40;25.88;;;12.13;;
76786;SDS011;65739;51.482;5.702;2023-04-06T08:02:06;25.58;;;12.27;;
76786;SDS011;65739;51.482;5.702;2023-04-06T08:04:32;22.70;;;11.90;;
76786;SDS011;65739;51.482;5.702;2023-04-06T08:06:57;19.13;;;11.40;;
76786;SDS011;65739;51.482;5.702;2023-04-06T08:09:23;23.15;;;12.05;;
76786;SDS011;65739;51.482;5.702;2023-04-06T08:11:49;22.48;;;11.65;;
76786;SDS011;65739;51.482;5.702;2023-04-06T08:14:14;22.60;;;12.18;;
76786;SDS011;65739;51.482;5.702;2023-04-06T08:16:41;20.80;;;11.48;;
76786;SDS011;65739;51.482;5.702;2023-04-06T08:19:07;23.70;;;12.27;;
76786;SDS011;65739;51.482;5.702;2023-04-06T08:21:34;21.20;;;11.23;;
76786;SDS011;65739;51.482;5.702;2023-04-06T08:24:00;26.75;;;11.77;;
76786;SDS011;65739;51.482;5.702;2023-04-06T08:26:26;19.40;;;11.52;;
76786;SDS011;65739;51.482;5.702;2023-04-06T08:28:53;17.45;;;11.07;;
76786;SDS011;65739;51.482;5.702;2023-04-06T08:31:18;21.70;;;11.23;;
76786;SDS011;65739;51.482;5.702;2023-04-06T08:33:44;19.25;;;11.10;;
76786;SDS011;65739;51.482;5.702;2023-04-06T08:36:10;19.83;;;11.10;;
76786;SDS011;65739;51.482;5.702;2023-04-06T08:38:37;24.77;;;11.07;;
76786;SDS011;65739;51.482;5.702;2023-04-06T08:41:10;19.92;;;11.38;;
76786;SDS011;65739;51.482;5.702;2023-04-06T08:43:42;19.25;;;10.48;;
76786;SDS011;65739;51.482;5.702;2023-04-06T08:46:10;21.75;;;11.50;;
76786;SDS011;65739;51.482;5.702;2023-04-06T08:48:36;25.17;;;11.48;;
76786;SDS011;65739;51.482;5.702;2023-04-06T08:51:03;20.40;;;11.85;;
76786;SDS011;65739;51.482;5.702;2023-04-06T08:53:29;21.73;;;11.18;;
76786;SDS011;65739;51.482;5.702;2023-04-06T08:55:55;19.95;;;10.95;;
76786;SDS011;65739;51.482;5.702;2023-04-06T08:58:23;31.83;;;11.55;;
76786;SDS011;65739;51.482;5.702;2023-04-06T09:00:50;20.58;;;10.85;;
76786;SDS011;65739;51.482;5.702;2023-04-06T09:03:16;23.05;;;11.15;;
76786;SDS011;65739;51.482;5.702;2023-04-06T09:05:43;26.10;;;11.25;;
76786;SDS011;65739;51.482;5.702;2023-04-06T09:08:11;22.85;;;10.85;;
76786;SDS011;65739;51.482;5.702;2023-04-06T09:10:40;20.73;;;11.75;;
76786;SDS011;65739;51.482;5.702;2023-04-06T09:13:06;19.80;;;11.18;;
76786;SDS011;65739;51.482;5.702;2023-04-06T09:15:32;16.20;;;10.70;;
76786;SDS011;65739;51.482;5.702;2023-04-06T09:18:01;22.05;;;10.95;;
76786;SDS011;65739;51.482;5.702;2023-04-06T09:20:26;23.92;;;11.02;;
76786;SDS011;65739;51.482;5.702;2023-04-06T09:22:53;20.40;;;11.25;;
76786;SDS011;65739;51.482;5.702;2023-04-06T09:25:20;20.90;;;11.52;;
76786;SDS011;65739;51.482;5.702;2023-04-06T09:27:48;21.40;;;10.90;;
76786;SDS011;65739;51.482;5.702;2023-04-06T09:30:22;24.38;;;10.57;;
76786;SDS011;65739;51.482;5.702;2023-04-06T09:32:50;21.50;;;10.90;;
76786;SDS011;65739;51.482;5.702;2023-04-06T09:35:17;21.00;;;10.63;;
76786;SDS011;65739;51.482;5.702;2023-04-06T09:37:45;21.98;;;11.73;;
76786;SDS011;65739;51.482;5.702;2023-04-06T09:40:12;20.85;;;10.90;;
76786;SDS011;65739;51.482;5.702;2023-04-06T09:42:42;18.77;;;10.95;;
76786;SDS011;65739;51.482;5.702;2023-04-06T09:45:10;19.85;;;10.98;;
76786;SDS011;65739;51.482;5.702;2023-04-06T09:47:36;20.05;;;11.75;;
76786;SDS011;65739;51.482;5.702;2023-04-06T09:50:02;21.13;;;11.23;;
76786;SDS011;65739;51.482;5.702;2023-04-06T09:52:37;21.55;;;10.63;;
76786;SDS011;65739;51.482;5.702;2023-04-06T09:55:13;17.42;;;10.20;;
76786;SDS011;65739;51.482;5.702;2023-04-06T09:58:05;24.02;;;10.43;;
76786;SDS011;65739;51.482;5.702;2023-04-06T10:00:42;15.98;;;10.40;;
76786;SDS011;65739;51.482;5.702;2023-04-06T10:06:10;20.67;;;10.23;;
76786;SDS011;65739;51.482;5.702;2023-04-06T10:08:40;14.35;;;8.52;;
76786;SDS011;65739;51.482;5.702;2023-04-06T10:11:08;20.67;;;9.68;;
76786;SDS011;65739;51.482;5.702;2023-04-06T10:13:35;13.85;;;9.02;;
76786;SDS011;65739;51.482;5.702;2023-04-06T10:16:03;17.13;;;8.57;;
76786;SDS011;65739;51.482;5.702;2023-04-06T10:18:33;13.43;;;8.57;;
76786;SDS011;65739;51.482;5.702;2023-04-06T10:21:08;14.77;;;8.57;;
76786;SDS011;65739;51.482;5.702;2023-04-06T10:23:48;13.02;;;7.43;;
76786;SDS011;65739;51.482;5.702;2023-04-06T10:26:24;14.45;;;8.00;;
76786;SDS011;65739;51.482;5.702;2023-04-06T10:29:02;14.52;;;8.13;;
76786;SDS011;65739;51.482;5.702;2023-04-06T10:31:31;20.65;;;8.25;;
76786;SDS011;65739;51.482;5.702;2023-04-06T10:33:57;14.52;;;7.88;;
76786;SDS011;65739;51.482;5.702;2023-04-06T10:36:34;13.55;;;7.97;;
76786;SDS011;65739;51.482;5.702;2023-04-06T10:39:01;12.85;;;7.80;;
76786;SDS011;65739;51.482;5.702;2023-04-06T10:41:52;12.63;;;7.20;;
76786;SDS011;65739;51.482;5.702;2023-04-06T10:44:26;14.50;;;7.75;;
76786;SDS011;65739;51.482;5.702;2023-04-06T10:46:52;11.55;;;6.40;;
76786;SDS011;65739;51.482;5.702;2023-04-06T10:49:22;12.15;;;6.55;;
76786;SDS011;65739;51.482;5.702;2023-04-06T10:51:53;8.75;;;6.35;;
76786;SDS011;65739;51.482;5.702;2023-04-06T10:54:21;11.50;;;6.65;;
76786;SDS011;65739;51.482;5.702;2023-04-06T10:56:57;9.90;;;6.13;;
76786;SDS011;65739;51.482;5.702;2023-04-06T10:59:28;11.18;;;5.68;;
76786;SDS011;65739;51.482;5.702;2023-04-06T11:01:56;8.88;;;5.90;;
76786;SDS011;65739;51.482;5.702;2023-04-06T11:04:22;8.13;;;5.13;;
76786;SDS011;65739;51.482;5.702;2023-04-06T11:06:55;11.35;;;6.32;;
76786;SDS011;65739;51.482;5.702;2023-04-06T11:09:23;12.38;;;6.03;;
76786;SDS011;65739;51.482;5.702;2023-04-06T11:12:00;9.07;;;6.00;;
76786;SDS011;65739;51.482;5.702;2023-04-06T11:14:30;13.93;;;6.10;;
76786;SDS011;65739;51.482;5.702;2023-04-06T11:17:31;9.73;;;5.68;;
76786;SDS011;65739;51.482;5.702;2023-04-06T11:20:03;8.65;;;5.95;;
76786;SDS011;65739;51.482;5.702;2023-04-06T11:22:34;10.02;;;5.40;;
76786;SDS011;65739;51.482;5.702;2023-04-06T11:25:09;10.20;;;5.78;;
76786;SDS011;65739;51.482;5.702;2023-04-06T11:27:42;10.75;;;5.90;;
76786;SDS011;65739;51.482;5.702;2023-04-06T11:30:08;9.52;;;5.47;;
76786;SDS011;65739;51.482;5.702;2023-04-06T11:32:44;10.70;;;5.78;;
76786;SDS011;65739;51.482;5.702;2023-04-06T11:35:11;7.88;;;3.92;;
76786;SDS011;65739;51.482;5.702;2023-04-06T11:37:48;7.25;;;4.05;;
76786;SDS011;65739;51.482;5.702;2023-04-06T11:43:34;4.90;;;3.40;;
76786;SDS011;65739;51.482;5.702;2023-04-06T11:46:17;5.18;;;3.55;;
76786;SDS011;65739;51.482;5.702;2023-04-06T11:48:50;6.60;;;4.25;;
76786;SDS011;65739;51.482;5.702;2023-04-06T12:34:20;7.20;;;5.25;;
76786;SDS011;65739;51.482;5.702;2023-04-06T12:36:45;8.77;;;4.80;;
76786;SDS011;65739;51.482;5.702;2023-04-06T12:39:11;9.27;;;5.75;;
76786;SDS011;65739;51.482;5.702;2023-04-06T12:41:36;8.13;;;5.30;;
76786;SDS011;65739;51.482;5.702;2023-04-06T12:44:05;10.27;;;6.68;;
76786;SDS011;65739;51.482;5.702;2023-04-06T12:46:30;9.68;;;6.28;;
76786;SDS011;65739;51.482;5.702;2023-04-06T12:48:56;10.30;;;5.55;;
76786;SDS011;65739;51.482;5.702;2023-04-06T12:51:23;8.82;;;6.55;;
76786;SDS011;65739;51.482;5.702;2023-04-06T12:53:50;12.82;;;6.60;;
76786;SDS011;65739;51.482;5.702;2023-04-06T12:56:16;13.27;;;6.63;;
76786;SDS011;65739;51.482;5.702;2023-04-06T12:58:43;10.32;;;6.97;;
76786;SDS011;65739;51.482;5.702;2023-04-06T13:01:09;12.00;;;6.80;;
76786;SDS011;65739;51.482;5.702;2023-04-06T13:03:37;11.10;;;6.25;;
76786;SDS011;65739;51.482;5.702;2023-04-06T13:06:03;11.82;;;7.50;;
76786;SDS011;65739;51.482;5.702;2023-04-06T13:08:29;10.95;;;7.13;;
76786;SDS011;65739;51.482;5.702;2023-04-06T13:10:55;9.60;;;6.90;;
76786;SDS011;65739;51.482;5.702;2023-04-06T13:13:25;11.80;;;7.18;;
76786;SDS011;65739;51.482;5.702;2023-04-06T13:15:52;12.95;;;7.00;;
76786;SDS011;65739;51.482;5.702;2023-04-06T13:18:18;12.02;;;7.22;;
76786;SDS011;65739;51.482;5.702;2023-04-06T13:20:44;10.57;;;7.80;;
76786;SDS011;65739;51.482;5.702;2023-04-06T13:23:12;14.88;;;7.38;;
76786;SDS011;65739;51.482;5.702;2023-04-06T13:25:37;10.98;;;7.05;;
76786;SDS011;65739;51.482;5.702;2023-04-06T13:28:03;12.57;;;7.43;;
76786;SDS011;65739;51.482;5.702;2023-04-06T13:30:28;12.63;;;7.07;;
76786;SDS011;65739;51.482;5.702;2023-04-06T13:32:54;10.48;;;6.45;;
76786;SDS011;65739;51.482;5.702;2023-04-06T13:35:20;12.63;;;7.45;;
76786;SDS011;65739;51.482;5.702;2023-04-06T13:37:45;10.32;;;6.03;;
76786;SDS011;65739;51.482;5.702;2023-04-06T13:40:13;15.18;;;7.10;;
76786;SDS011;65739;51.482;5.702;2023-04-06T13:42:39;12.55;;;7.15;;
76786;SDS011;65739;51.482;5.702;2023-04-06T13:45:05;9.07;;;6.80;;
76786;SDS011;65739;51.482;5.702;2023-04-06T13:47:32;11.05;;;6.55;;
76786;SDS011;65739;51.482;5.702;2023-04-06T13:49:57;13.60;;;8.10;;
76786;SDS011;65739;51.482;5.702;2023-04-06T13:52:23;10.63;;;7.68;;
76786;SDS011;65739;51.482;5.702;2023-04-06T13:54:49;10.05;;;7.22;;
76786;SDS011;65739;51.482;5.702;2023-04-06T13:57:15;12.27;;;7.47;;
76786;SDS011;65739;51.482;5.702;2023-04-06T13:59:40;12.30;;;7.20;;
76786;SDS011;65739;51.482;5.702;2023-04-06T14:02:07;10.40;;;7.15;;
76786;SDS011;65739;51.482;5.702;2023-04-06T14:04:34;12.77;;;7.53;;
76786;SDS011;65739;51.482;5.702;2023-04-06T14:07:00;10.10;;;7.47;;
76786;SDS011;65739;51.482;5.702;2023-04-06T14:09:26;13.82;;;8.68;;
76786;SDS011;65739;51.482;5.702;2023-04-06T14:11:52;12.18;;;7.70;;
76786;SDS011;65739;51.482;5.702;2023-04-06T14:14:18;15.05;;;8.10;;
76786;SDS011;65739;51.482;5.702;2023-04-06T14:16:44;11.20;;;7.70;;
76786;SDS011;65739;51.482;5.702;2023-04-06T14:19:11;15.15;;;8.25;;
76786;SDS011;65739;51.482;5.702;2023-04-06T14:21:38;17.05;;;8.32;;
76786;SDS011;65739;51.482;5.702;2023-04-06T14:24:05;13.00;;;7.85;;
76786;SDS011;65739;51.482;5.702;2023-04-06T14:26:32;13.27;;;7.95;;
76786;SDS011;65739;51.482;5.702;2023-04-06T14:28:59;13.52;;;8.20;;
76786;SDS011;65739;51.482;5.702;2023-04-06T14:31:25;14.15;;;7.97;;
76786;SDS011;65739;51.482;5.702;2023-04-06T14:33:51;10.73;;;7.60;;
76786;SDS011;65739;51.482;5.702;2023-04-06T14:36:17;11.23;;;7.25;;
76786;SDS011;65739;51.482;5.702;2023-04-06T14:38:43;11.95;;;8.32;;
76786;SDS011;65739;51.482;5.702;2023-04-06T14:41:15;11.65;;;7.43;;
76786;SDS011;65739;51.482;5.702;2023-04-06T14:43:43;18.98;;;7.97;;
76786;SDS011;65739;51.482;5.702;2023-04-06T14:46:08;13.52;;;7.88;;
76786;SDS011;65739;51.482;5.702;2023-04-06T14:48:34;13.00;;;7.40;;
76786;SDS011;65739;51.482;5.702;2023-04-06T14:51:00;13.10;;;8.10;;
76786;SDS011;65739;51.482;5.702;2023-04-06T14:53:26;11.77;;;7.30;;
76786;SDS011;65739;51.482;5.702;2023-04-06T14:55:53;11.88;;;7.70;;
76786;SDS011;65739;51.482;5.702;2023-04-06T14:58:19;11.02;;;7.40;;
76786;SDS011;65739;51.482;5.702;2023-04-06T15:00:46;11.80;;;7.93;;
76786;SDS011;65739;51.482;5.702;2023-04-06T15:03:12;12.75;;;7.82;;
76786;SDS011;65739;51.482;5.702;2023-04-06T15:05:37;16.33;;;7.65;;
76786;SDS011;65739;51.482;5.702;2023-04-06T15:08:03;10.20;;;7.00;;
76786;SDS011;65739;51.482;5.702;2023-04-06T15:10:32;14.55;;;7.85;;
76786;SDS011;65739;51.482;5.702;2023-04-06T15:12:58;12.93;;;8.52;;
76786;SDS011;65739;51.482;5.702;2023-04-06T15:15:25;11.35;;;7.75;;
76786;SDS011;65739;51.482;5.702;2023-04-06T15:17:50;15.02;;;8.15;;
76786;SDS011;65739;51.482;5.702;2023-04-06T15:20:16;14.15;;;8.63;;
76786;SDS011;65739;51.482;5.702;2023-04-06T15:22:42;12.57;;;8.27;;
76786;SDS011;65739;51.482;5.702;2023-04-06T15:25:08;11.93;;;8.32;;
76786;SDS011;65739;51.482;5.702;2023-04-06T15:27:33;13.48;;;8.25;;
76786;SDS011;65739;51.482;5.702;2023-04-06T15:29:59;13.02;;;7.32;;
76786;SDS011;65739;51.482;5.702;2023-04-06T15:32:25;13.57;;;8.32;;
76786;SDS011;65739;51.482;5.702;2023-04-06T15:34:51;12.23;;;7.70;;
76786;SDS011;65739;51.482;5.702;2023-04-06T15:37:18;13.07;;;9.10;;
76786;SDS011;65739;51.482;5.702;2023-04-06T15:39:43;12.73;;;8.15;;
76786;SDS011;65739;51.482;5.702;2023-04-06T15:42:09;11.90;;;8.25;;
76786;SDS011;65739;51.482;5.702;2023-04-06T15:44:35;14.60;;;8.93;;
76786;SDS011;65739;51.482;5.702;2023-04-06T15:47:00;15.95;;;9.50;;
76786;SDS011;65739;51.482;5.702;2023-04-06T15:49:26;17.25;;;9.73;;
76786;SDS011;65739;51.482;5.702;2023-04-06T15:51:52;14.85;;;8.90;;
76786;SDS011;65739;51.482;5.702;2023-04-06T15:54:17;13.82;;;9.15;;
76786;SDS011;65739;51.482;5.702;2023-04-06T15:56:45;16.17;;;8.80;;
76786;SDS011;65739;51.482;5.702;2023-04-06T15:59:11;18.52;;;9.93;;
76786;SDS011;65739;51.482;5.702;2023-04-06T16:01:36;16.45;;;9.63;;
76786;SDS011;65739;51.482;5.702;2023-04-06T16:04:05;13.57;;;8.68;;
76786;SDS011;65739;51.482;5.702;2023-04-06T16:06:31;13.05;;;8.75;;
76786;SDS011;65739;51.482;5.702;2023-04-06T16:08:59;14.73;;;8.18;;
76786;SDS011;65739;51.482;5.702;2023-04-06T16:11:26;14.02;;;9.35;;
76786;SDS011;65739;51.482;5.702;2023-04-06T16:13:54;15.73;;;9.82;;
76786;SDS011;65739;51.482;5.702;2023-04-06T16:16:22;14.50;;;8.85;;
76786;SDS011;65739;51.482;5.702;2023-04-06T16:18:48;14.25;;;9.45;;